Time;durP1;ratioP1;P1;durP2;ratioP2;P2;SDS_P1;SDS_P2;PMS_P1;PMS_P2;Temp;Humidity;BMP_temperature;BMP_pressure;BME280_temperature;BME280_humidity;BME280_pressure;Samples;Min_cycle;Max_cycle;Signal;HPM_P1;HPM_P2
2023/05/15 00:00:11;;;;;;;0.10;0.10;;;12.50;99.90;;;;;;4991651;28;20030;-50
2023/05/15 00:02:38;;;;;;;3.13;2.33;;;12.50;99.90;;;;;;4991672;28;20504;-45
2023/05/15 00:05:05;;;;;;;7.43;4.80;;;12.50;99.90;;;;;;4991696;28;20038;-43
2023/05/15 00:07:31;;;;;;;5.47;3.88;;;12.40;99.90;;;;;;4991561;28;20421;-49
2023/05/15 00:09:56;;;;;;;6.40;4.85;;;12.40;99.90;;;;;;4991343;28;20018;-43
2023/05/15 00:12:22;;;;;;;7.20;4.78;;;12.40;99.90;;;;;;4991467;28;20022;-45
2023/05/15 00:14:47;;;;;;;5.38;3.72;;;12.40;99.90;;;;;;4991288;28;20433;-48
2023/05/15 00:17:13;;;;;;;5.07;4.28;;;12.30;99.90;;;;;;4991519;28;20101;-49
2023/05/15 00:19:39;;;;;;;8.20;4.15;;;12.30;99.90;;;;;;4991168;28;20018;-42
2023/05/15 00:22:04;;;;;;;7.93;5.13;;;12.30;99.90;;;;;;4991195;28;20030;-45
2023/05/15 00:24:30;;;;;;;8.05;4.38;;;12.30;99.90;;;;;;4990867;28;20145;-41
2023/05/15 00:26:56;;;;;;;9.18;4.53;;;12.30;99.90;;;;;;4991297;28;20030;-41
2023/05/15 00:29:22;;;;;;;6.18;4.30;;;12.30;99.90;;;;;;4991191;28;20035;-45
2023/05/15 00:31:48;;;;;;;4.85;3.92;;;12.30;99.90;;;;;;4991217;28;20037;-45
2023/05/15 00:34:13;;;;;;;9.15;6.57;;;12.30;99.90;;;;;;4991326;28;20433;-48
2023/05/15 00:36:39;;;;;;;9.05;6.30;;;12.30;99.90;;;;;;4990965;28;20121;-44
2023/05/15 00:39:05;;;;;;;6.38;3.95;;;12.30;99.90;;;;;;4990933;28;20105;-45
2023/05/15 00:41:32;;;;;;;5.70;4.43;;;12.30;99.90;;;;;;4991047;28;20053;-51
2023/05/15 00:43:59;;;;;;;6.78;3.95;;;12.30;99.90;;;;;;4991177;28;20029;-46
2023/05/15 00:46:27;;;;;;;6.20;3.88;;;12.20;99.90;;;;;;4991130;28;20795;-46
2023/05/15 00:48:53;;;;;;;9.20;4.68;;;12.20;99.90;;;;;;4991190;28;20085;-51
2023/05/15 00:51:19;;;;;;;3.92;3.40;;;12.30;99.90;;;;;;4991155;28;20064;-53
2023/05/15 00:53:45;;;;;;;4.95;3.95;;;12.30;99.90;;;;;;4990751;28;20541;-47
2023/05/15 00:56:11;;;;;;;4.85;3.97;;;12.30;99.90;;;;;;4991031;28;20113;-45
2023/05/15 00:58:37;;;;;;;4.07;3.35;;;12.40;99.90;;;;;;4991182;28;20069;-44
2023/05/15 01:01:04;;;;;;;4.85;3.05;;;12.40;99.90;;;;;;4991071;28;20267;-49
2023/05/15 01:03:30;;;;;;;4.72;3.60;;;12.40;99.90;;;;;;4991150;28;20033;-51
2023/05/15 01:05:56;;;;;;;3.90;3.08;;;12.40;99.90;;;;;;5004871;28;20022;-51
2023/05/15 01:08:44;;;;;;;7.80;4.57;;;12.50;99.90;;;;;;4990638;28;20030;-43
2023/05/15 01:11:12;;;;;;;5.57;3.22;;;12.50;99.90;;;;;;4990524;28;20402;-42
2023/05/15 01:13:37;;;;;;;2.88;2.55;;;12.50;99.90;;;;;;4990778;28;20018;-41
2023/05/15 01:16:05;;;;;;;4.07;2.95;;;12.50;99.90;;;;;;4991044;28;20045;-50
2023/05/15 01:18:33;;;;;;;5.70;3.95;;;12.60;99.90;;;;;;4991138;28;20033;-56
2023/05/15 01:21:04;;;;;;;3.33;2.22;;;12.60;99.90;;;;;;4990679;28;20042;-50
2023/05/15 01:23:35;;;;;;;3.55;2.67;;;12.70;99.90;;;;;;4995715;28;20021;-54
2023/05/15 01:26:21;;;;;;;6.60;3.90;;;12.70;99.90;;;;;;4992684;28;20038;-58
2023/05/15 01:29:00;;;;;;;2.53;2.08;;;12.70;99.90;;;;;;4994454;28;20023;-50
2023/05/15 01:31:29;;;;;;;4.78;2.55;;;12.70;99.90;;;;;;4994157;28;20381;-51
2023/05/15 01:33:56;;;;;;;;;;;12.80;99.90;;;;;;4994688;28;20026;-52
2023/05/15 01:36:33;;;;;;;3.20;2.25;;;12.80;99.90;;;;;;4994200;28;20395;-52
2023/05/15 01:39:02;;;;;;;5.70;4.15;;;12.80;99.90;;;;;;4994285;28;20030;-55
2023/05/15 01:41:43;;;;;;;4.22;2.92;;;12.80;99.90;;;;;;4993949;28;20050;-53
2023/05/15 01:44:26;;;;;;;3.67;2.72;;;12.80;99.90;;;;;;4994109;28;20023;-46
2023/05/15 01:46:56;;;;;;;6.63;2.42;;;12.80;99.90;;;;;;4994072;28;20125;-43
2023/05/15 01:49:25;;;;;;;3.65;3.03;;;12.80;99.90;;;;;;4994277;28;20022;-45
2023/05/15 01:51:58;;;;;;;5.68;2.90;;;12.80;99.90;;;;;;4994096;28;20473;-47
2023/05/15 01:54:25;;;;;;;4.55;2.95;;;12.70;99.90;;;;;;4994162;28;20478;-47
2023/05/15 01:56:51;;;;;;;4.05;3.00;;;12.80;99.90;;;;;;4993849;28;20478;-44
2023/05/15 01:59:19;;;;;;;6.68;3.80;;;12.70;99.90;;;;;;4993844;28;20489;-43
2023/05/15 02:01:45;;;;;;;3.42;2.60;;;12.70;99.90;;;;;;4993905;28;20042;-42
2023/05/15 02:04:12;;;;;;;3.55;3.22;;;12.70;99.90;;;;;;4992552;28;20029;-45
2023/05/15 02:06:39;;;;;;;3.72;2.75;;;12.70;99.90;;;;;;4993799;28;20038;-49
2023/05/15 02:09:06;;;;;;;4.03;3.58;;;12.70;99.90;;;;;;4993706;28;20527;-48
2023/05/15 02:11:32;;;;;;;5.68;3.25;;;12.70;99.90;;;;;;4993675;28;20022;-49
2023/05/15 02:14:00;;;;;;;3.95;2.70;;;12.60;99.90;;;;;;4993471;28;20042;-46
2023/05/15 02:16:25;;;;;;;3.50;2.53;;;12.70;99.90;;;;;;4992187;28;20031;-48
2023/05/15 02:18:51;;;;;;;2.60;1.65;;;12.70;99.90;;;;;;4993545;28;20774;-59
2023/05/15 02:21:17;;;;;;;3.03;2.55;;;12.70;99.90;;;;;;4993599;28;20030;-51
2023/05/15 02:23:42;;;;;;;5.00;3.42;;;12.70;99.90;;;;;;4993566;28;20035;-48
2023/05/15 02:26:30;;;;;;;4.38;2.70;;;12.60;99.90;;;;;;4993489;28;20497;-51
2023/05/15 02:29:26;;;;;;;3.08;2.35;;;12.60;99.90;;;;;;4993376;28;20117;-49
2023/05/15 02:32:29;;;;;;;3.15;2.55;;;12.60;99.90;;;;;;4993367;28;20024;-45
2023/05/15 02:35:11;;;;;;;2.17;1.90;;;12.60;99.90;;;;;;4960476;28;20543;-54
2023/05/15 02:37:38;;;;;;;1.70;1.50;;;12.60;99.90;;;;;;4993011;28;20038;-50
2023/05/15 02:40:10;;;;;;;2.90;1.95;;;12.60;99.90;;;;;;4993114;28;20064;-51
2023/05/15 02:42:36;;;;;;;2.90;1.95;;;12.60;99.90;;;;;;4992798;28;20089;-47
2023/05/15 02:45:02;;;;;;;1.98;1.73;;;12.60;99.90;;;;;;4993112;28;20050;-54
2023/05/15 02:47:29;;;;;;;2.70;1.77;;;12.60;99.90;;;;;;4993071;28;20069;-46
2023/05/15 02:49:56;;;;;;;1.33;1.17;;;12.60;99.90;;;;;;4992907;28;20474;-43
2023/05/15 02:52:25;;;;;;;2.22;1.55;;;12.60;99.90;;;;;;4992954;28;20023;-54
2023/05/15 02:54:50;;;;;;;2.28;1.58;;;12.60;99.90;;;;;;4992943;28;20030;-46
2023/05/15 02:57:16;;;;;;;2.17;1.33;;;12.60;99.90;;;;;;4992826;28;20453;-55
2023/05/15 02:59:42;;;;;;;1.67;1.40;;;12.60;99.90;;;;;;4992595;28;20023;-46
2023/05/15 03:02:07;;;;;;;2.63;1.75;;;12.60;99.90;;;;;;4992630;28;20038;-45
2023/05/15 03:04:33;;;;;;;2.85;1.38;;;12.50;99.90;;;;;;4992670;28;20018;-54
2023/05/15 03:06:59;;;;;;;1.73;1.30;;;12.50;99.90;;;;;;4992584;28;20026;-51
2023/05/15 03:09:24;;;;;;;1.27;1.17;;;12.60;99.90;;;;;;4992598;28;20046;-53
2023/05/15 03:11:50;;;;;;;2.40;1.45;;;12.60;99.90;;;;;;4992411;28;20080;-46
2023/05/15 03:14:16;;;;;;;1.85;1.20;;;12.60;99.90;;;;;;4992448;28;20037;-49
2023/05/15 03:16:41;;;;;;;2.10;1.50;;;12.60;99.90;;;;;;4992467;28;20038;-42
2023/05/15 03:19:07;;;;;;;2.28;1.08;;;12.60;99.90;;;;;;4992315;28;20045;-48
2023/05/15 03:21:33;;;;;;;1.10;1.05;;;12.60;99.90;;;;;;4992312;28;20034;-54
2023/05/15 03:24:00;;;;;;;1.38;1.27;;;12.60;99.90;;;;;;4992290;28;20042;-45
2023/05/15 03:26:25;;;;;;;1.45;1.20;;;12.70;99.90;;;;;;4992201;28;20062;-42
2023/05/15 03:28:52;;;;;;;2.15;1.38;;;12.60;99.90;;;;;;4992297;28;20111;-45
2023/05/15 03:31:17;;;;;;;1.63;1.15;;;12.60;99.90;;;;;;4992265;28;20034;-48
2023/05/15 03:33:44;;;;;;;2.78;1.40;;;12.70;99.90;;;;;;4992179;28;20043;-52
2023/05/15 03:36:10;;;;;;;1.23;1.02;;;12.60;99.90;;;;;;4991844;28;20493;-48
2023/05/15 03:38:36;;;;;;;1.00;0.98;;;12.70;99.90;;;;;;4992026;28;20038;-43
2023/05/15 03:41:02;;;;;;;2.45;1.60;;;12.70;99.90;;;;;;4991850;28;20058;-44
2023/05/15 03:43:28;;;;;;;1.17;1.08;;;12.60;99.90;;;;;;4992001;28;20030;-45
2023/05/15 03:45:54;;;;;;;1.10;0.82;;;12.70;99.90;;;;;;4991701;28;20507;-42
2023/05/15 03:48:20;;;;;;;2.00;1.30;;;12.60;99.90;;;;;;4991306;28;20557;-45
2023/05/15 03:50:45;;;;;;;2.45;1.45;;;12.60;99.90;;;;;;4991680;28;20057;-55
2023/05/15 03:53:11;;;;;;;1.08;0.98;;;12.60;99.90;;;;;;4991796;28;20030;-50
2023/05/15 03:55:36;;;;;;;2.75;1.15;;;12.60;99.90;;;;;;4991766;28;20409;-50
2023/05/15 03:58:02;;;;;;;1.60;1.08;;;12.60;99.90;;;;;;4991599;28;20034;-49
2023/05/15 04:00:28;;;;;;;0.80;0.70;;;12.60;99.90;;;;;;4991786;28;20374;-50
2023/05/15 04:02:53;;;;;;;0.82;0.82;;;12.70;99.90;;;;;;4991714;28;20073;-43
2023/05/15 04:05:20;;;;;;;0.82;0.82;;;12.70;99.90;;;;;;4991512;28;20116;-43
2023/05/15 04:07:46;;;;;;;1.80;1.20;;;12.70;99.90;;;;;;4991614;28;20042;-55
2023/05/15 04:10:12;;;;;;;2.72;1.38;;;12.80;99.90;;;;;;4991359;28;20114;-50
2023/05/15 04:12:37;;;;;;;2.47;0.70;;;12.80;99.90;;;;;;4991702;28;20030;-51
2023/05/15 04:15:18;;;;;;;0.80;0.73;;;12.80;99.90;;;;;;4991384;28;20478;-46
2023/05/15 04:17:45;;;;;;;0.82;0.75;;;12.80;99.90;;;;;;4991466;28;20082;-46
2023/05/15 04:20:13;;;;;;;1.20;0.77;;;12.80;99.90;;;;;;4991471;28;20454;-49
2023/05/15 04:22:38;;;;;;;0.63;0.63;;;12.90;99.90;;;;;;4991457;28;20018;-52
2023/05/15 04:25:04;;;;;;;0.50;0.50;;;12.90;99.90;;;;;;4991325;28;20036;-53
2023/05/15 04:27:30;;;;;;;0.45;0.45;;;12.90;99.90;;;;;;4991177;28;20032;-50
2023/05/15 04:29:56;;;;;;;0.75;0.70;;;13.00;99.90;;;;;;4991327;28;20398;-47
2023/05/15 04:32:21;;;;;;;0.85;0.70;;;12.90;99.90;;;;;;4991130;28;20038;-48
2023/05/15 04:34:47;;;;;;;1.08;0.98;;;12.90;99.90;;;;;;5006222;28;20084;-50
2023/05/15 04:37:13;;;;;;;0.70;0.70;;;13.00;99.90;;;;;;4991453;28;20038;-44
2023/05/15 04:39:38;;;;;;;1.67;1.13;;;13.00;99.90;;;;;;4991155;28;20022;-51
2023/05/15 04:42:04;;;;;;;0.80;0.70;;;13.00;99.90;;;;;;4991138;28;20088;-54
2023/05/15 04:44:30;;;;;;;0.90;0.73;;;13.00;99.90;;;;;;4991157;28;20022;-54
2023/05/15 04:46:56;;;;;;;0.70;0.70;;;13.10;99.90;;;;;;4990922;28;20080;-57
2023/05/15 04:49:22;;;;;;;1.00;0.90;;;13.10;99.90;;;;;;4990990;28;20481;-49
2023/05/15 04:51:47;;;;;;;0.63;0.63;;;13.10;99.90;;;;;;4991080;28;20077;-46
2023/05/15 04:54:13;;;;;;;0.70;0.70;;;13.20;99.90;;;;;;4991026;28;20796;-44
2023/05/15 04:56:38;;;;;;;0.95;0.77;;;13.20;99.90;;;;;;4991024;28;20129;-53
2023/05/15 04:59:04;;;;;;;0.82;0.63;;;13.20;99.90;;;;;;4990985;28;20398;-43
2023/05/15 05:01:30;;;;;;;0.47;0.47;;;13.20;99.90;;;;;;4993965;28;20034;-43
2023/05/15 05:03:55;;;;;;;2.13;0.73;;;13.20;99.90;;;;;;4995152;28;20110;-43
2023/05/15 05:06:22;;;;;;;1.70;0.90;;;13.30;99.90;;;;;;4995229;28;20037;-46
2023/05/15 05:08:47;;;;;;;1.65;1.05;;;13.30;99.90;;;;;;4995089;28;20023;-45
2023/05/15 05:11:13;;;;;;;1.00;0.85;;;13.30;99.90;;;;;;4994769;28;20395;-48
2023/05/15 05:13:39;;;;;;;0.95;0.85;;;13.40;99.90;;;;;;4994671;28;20029;-50
2023/05/15 05:16:05;;;;;;;1.00;0.80;;;13.40;99.90;;;;;;4994640;28;20120;-48
2023/05/15 05:18:30;;;;;;;0.93;0.85;;;13.50;99.90;;;;;;4993482;28;20030;-49
2023/05/15 05:21:00;;;;;;;1.20;1.10;;;13.50;99.90;;;;;;4994695;28;20058;-51
2023/05/15 05:23:26;;;;;;;1.30;0.98;;;13.50;99.90;;;;;;4994681;28;20026;-48
2023/05/15 05:25:52;;;;;;;1.52;1.20;;;13.50;99.90;;;;;;4994522;28;20765;-49
2023/05/15 05:28:17;;;;;;;1.30;1.00;;;13.50;99.90;;;;;;4994481;28;20058;-45
2023/05/15 05:30:47;;;;;;;0.60;0.60;;;13.50;99.90;;;;;;4994194;28;20026;-51
2023/05/15 05:33:13;;;;;;;0.43;0.40;;;13.50;99.90;;;;;;4994323;28;20026;-50
2023/05/15 05:35:39;;;;;;;1.30;1.13;;;13.50;99.90;;;;;;4994310;28;20405;-47
2023/05/15 05:38:04;;;;;;;1.35;0.90;;;13.50;99.90;;;;;;4994013;28;20040;-42
2023/05/15 05:40:30;;;;;;;2.00;1.58;;;13.40;99.90;;;;;;4994122;28;20026;-41
2023/05/15 05:43:02;;;;;;;1.13;0.70;;;13.50;99.90;;;;;;4994001;28;20023;-41
2023/05/15 05:45:28;;;;;;;2.30;0.60;;;13.50;99.90;;;;;;4994226;28;20132;-41
2023/05/15 05:47:55;;;;;;;0.95;0.70;;;13.50;99.90;;;;;;4994453;28;20137;-47
2023/05/15 05:50:21;;;;;;;0.75;0.75;;;13.50;99.90;;;;;;4994380;28;20081;-51
2023/05/15 05:52:46;;;;;;;0.70;0.60;;;13.50;99.90;;;;;;4993941;28;20432;-49
2023/05/15 05:55:12;;;;;;;0.77;0.75;;;13.60;99.90;;;;;;4994047;28;20023;-54
2023/05/15 05:57:38;;;;;;;1.90;1.60;;;13.60;99.90;;;;;;4993847;28;20030;-55
2023/05/15 06:00:10;;;;;;;1.00;0.95;;;13.60;99.90;;;;;;4993690;28;20026;-46
2023/05/15 06:02:37;;;;;;;0.85;0.70;;;13.60;99.90;;;;;;5008946;28;20030;-49
2023/05/15 06:05:02;;;;;;;0.75;0.73;;;13.60;99.90;;;;;;5008639;28;20044;-50
2023/05/15 06:07:28;;;;;;;1.38;1.17;;;13.60;99.90;;;;;;4994027;28;20026;-51
2023/05/15 06:09:54;;;;;;;0.85;0.75;;;13.70;99.90;;;;;;4993725;28;20417;-50
2023/05/15 06:12:20;;;;;;;1.42;1.17;;;13.60;99.90;;;;;;4993225;28;20109;-50
2023/05/15 06:14:46;;;;;;;2.22;1.15;;;13.60;99.90;;;;;;4993578;28;20373;-50
2023/05/15 06:17:11;;;;;;;0.73;0.50;;;13.60;99.90;;;;;;4993544;28;20043;-50
2023/05/15 06:19:37;;;;;;;0.70;0.70;;;13.60;99.90;;;;;;4993512;28;20030;-54
2023/05/15 06:22:03;;;;;;;0.80;0.73;;;13.50;99.90;;;;;;4993506;28;20038;-50
2023/05/15 06:24:29;;;;;;;0.70;0.45;;;13.50;99.90;;;;;;4993533;28;20010;-53
2023/05/15 06:26:54;;;;;;;0.60;0.50;;;13.50;99.90;;;;;;4992198;28;20049;-43
2023/05/15 06:29:20;;;;;;;0.60;0.60;;;13.50;99.90;;;;;;4993311;28;20034;-46
2023/05/15 06:31:46;;;;;;;0.60;0.60;;;13.50;99.90;;;;;;4993333;28;20030;-42
2023/05/15 06:34:11;;;;;;;1.05;0.82;;;13.60;99.90;;;;;;4993350;28;20548;-47
2023/05/15 06:36:37;;;;;;;0.70;0.70;;;13.60;99.90;;;;;;4991883;28;20366;-47
2023/05/15 06:39:04;;;;;;;1.13;0.98;;;13.60;99.90;;;;;;4994904;28;20058;-52
2023/05/15 06:41:30;;;;;;;0.82;0.70;;;13.60;99.90;;;;;;4993003;28;20536;-43
2023/05/15 06:43:56;;;;;;;1.60;0.80;;;13.70;99.90;;;;;;4993035;28;20397;-47
2023/05/15 06:46:21;;;;;;;1.13;0.75;;;13.70;99.90;;;;;;4992696;28;20101;-49
2023/05/15 06:48:47;;;;;;;1.17;1.05;;;13.70;99.90;;;;;;4993029;28;20088;-46
2023/05/15 06:51:13;;;;;;;1.02;0.70;;;13.70;99.90;;;;;;4992701;28;20026;-45
2023/05/15 06:53:40;;;;;;;1.30;0.70;;;13.80;99.90;;;;;;4993008;28;20022;-50
2023/05/15 06:56:06;;;;;;;0.93;0.90;;;13.70;99.90;;;;;;4991099;28;20034;-52
2023/05/15 06:58:32;;;;;;;0.88;0.68;;;13.70;99.90;;;;;;4992924;28;20023;-47
2023/05/15 07:00:57;;;;;;;3.28;0.60;;;13.60;99.90;;;;;;4992777;28;20085;-43
2023/05/15 07:03:23;;;;;;;0.45;0.45;;;13.60;99.90;;;;;;4992725;28;20500;-48
2023/05/15 07:05:49;;;;;;;1.25;0.82;;;13.60;99.90;;;;;;4992691;28;20161;-52
2023/05/15 07:08:15;;;;;;;9.10;1.33;;;13.60;99.90;;;;;;4992434;28;20109;-50
2023/05/15 07:10:41;;;;;;;2.00;0.85;;;13.60;99.90;;;;;;5007648;28;20605;-50
2023/05/15 07:13:06;;;;;;;0.40;0.40;;;13.60;99.90;;;;;;4992532;28;20027;-52
2023/05/15 07:15:32;;;;;;;1.27;0.88;;;13.60;99.90;;;;;;4992432;28;20502;-43
2023/05/15 07:17:57;;;;;;;0.73;0.30;;;13.60;99.90;;;;;;4992763;28;20108;-50
2023/05/15 07:20:23;;;;;;;1.20;0.80;;;13.50;99.90;;;;;;4992461;28;20037;-44
2023/05/15 07:22:49;;;;;;;1.30;1.05;;;13.50;99.90;;;;;;4991801;28;20030;-50
2023/05/15 07:25:15;;;;;;;7.95;1.10;;;13.50;99.90;;;;;;4992394;28;20026;-47
2023/05/15 07:27:40;;;;;;;2.10;0.75;;;13.40;99.90;;;;;;4992231;28;20120;-49
2023/05/15 07:30:07;;;;;;;1.73;0.60;;;13.40;99.90;;;;;;4992136;28;20498;-48
2023/05/15 07:32:32;;;;;;;1.05;0.82;;;13.50;99.90;;;;;;4992056;28;20117;-51
2023/05/15 07:34:58;;;;;;;0.55;0.55;;;13.60;99.90;;;;;;4992391;28;20125;-55
2023/05/15 07:37:24;;;;;;;1.67;0.47;;;13.70;99.90;;;;;;5003824;28;20136;-45
2023/05/15 07:39:50;;;;;;;1.90;1.13;;;13.90;99.90;;;;;;4991862;28;20478;-54
2023/05/15 07:42:16;;;;;;;0.68;0.40;;;14.10;99.90;;;;;;4991778;28;20522;-47
2023/05/15 07:44:41;;;;;;;1.92;0.70;;;14.30;99.90;;;;;;4992179;28;20105;-45
2023/05/15 07:47:07;;;;;;;0.40;0.40;;;14.50;99.90;;;;;;4991934;28;20037;-43
2023/05/15 07:49:33;;;;;;;3.10;0.45;;;14.70;99.90;;;;;;5006316;28;20740;-53
2023/05/15 07:51:59;;;;;;;2.50;1.15;;;15.00;99.90;;;;;;4991701;28;20033;-50
2023/05/15 07:54:25;;;;;;;0.68;0.57;;;15.20;99.90;;;;;;4991594;28;20045;-51
2023/05/15 07:56:51;;;;;;;1.15;0.75;;;15.50;99.90;;;;;;4991530;28;20034;-48
2023/05/15 07:59:17;;;;;;;0.63;0.45;;;15.60;99.90;;;;;;4998636;28;20041;-46
2023/05/15 08:01:43;;;;;;;0.50;0.35;;;15.70;99.90;;;;;;5005876;28;20030;-52
2023/05/15 08:04:08;;;;;;;1.35;0.40;;;15.80;99.90;;;;;;4991335;28;20034;-53
2023/05/15 08:06:37;;;;;;;0.73;0.50;;;15.70;99.90;;;;;;4991718;28;20034;-44
2023/05/15 08:09:03;;;;;;;0.68;0.55;;;15.60;99.90;;;;;;4991237;28;20474;-44
2023/05/15 08:11:28;;;;;;;1.60;0.73;;;15.60;99.90;;;;;;4989945;28;20389;-44
2023/05/15 08:13:54;;;;;;;0.77;0.68;;;15.60;99.90;;;;;;4992929;28;20077;-42
2023/05/15 08:16:19;;;;;;;0.38;0.38;;;15.50;99.90;;;;;;4991528;28;20548;-41
2023/05/15 08:18:45;;;;;;;1.60;0.63;;;15.50;99.90;;;;;;4991313;28;20026;-45
2023/05/15 08:21:11;;;;;;;0.77;0.50;;;15.60;99.90;;;;;;5006238;28;20038;-48
2023/05/15 08:23:36;;;;;;;0.63;0.60;;;15.80;99.90;;;;;;4996425;28;20402;-46
2023/05/15 08:26:02;;;;;;;0.50;0.50;;;15.90;99.90;;;;;;5002864;28;20030;-49
2023/05/15 08:28:27;;;;;;;0.45;0.40;;;16.50;99.90;;;;;;5000344;28;20026;-51
2023/05/15 08:30:53;;;;;;;1.33;0.30;;;17.50;99.90;;;;;;5003872;28;20105;-52
2023/05/15 08:33:19;;;;;;;0.47;0.47;;;18.40;97.40;;;;;;5002190;28;20030;-50
2023/05/15 08:35:44;;;;;;;1.63;0.65;;;18.90;93.10;;;;;;4993730;28;20030;-43
2023/05/15 08:38:10;;;;;;;0.20;0.20;;;19.30;89.60;;;;;;4993914;28;20109;-41
2023/05/15 08:40:36;;;;;;;4.35;0.30;;;20.00;92.60;;;;;;4999550;28;20428;-45
2023/05/15 08:43:14;;;;;;;2.85;0.65;;;20.40;87.60;;;;;;4992459;28;20113;-42
2023/05/15 08:45:40;;;;;;;0.30;0.30;;;20.80;85.10;;;;;;5002388;28;20028;-46
2023/05/15 08:48:12;;;;;;;1.27;0.47;;;21.50;80.20;;;;;;5009129;28;20022;-40
2023/05/15 08:50:39;;;;;;;0.28;0.28;;;22.30;79.50;;;;;;4998420;28;20031;-42
2023/05/15 08:53:05;;;;;;;0.65;0.40;;;22.60;67.10;;;;;;4990867;28;20500;-45
2023/05/15 08:55:31;;;;;;;2.25;0.60;;;22.70;67.90;;;;;;4991132;28;20080;-50
2023/05/15 08:57:58;;;;;;;0.40;0.30;;;22.70;56.60;;;;;;4990891;28;20042;-43
2023/05/15 09:00:25;;;;;;;0.85;0.38;;;22.70;59.50;;;;;;4990987;28;20026;-49
2023/05/15 09:02:53;;;;;;;1.88;0.28;;;22.90;59.00;;;;;;4994859;28;20038;-48
2023/05/15 09:05:19;;;;;;;0.47;0.35;;;22.80;59.40;;;;;;4990880;28;20196;-47
2023/05/15 09:07:46;;;;;;;1.92;0.30;;;22.90;55.20;;;;;;4990854;28;20513;-45
2023/05/15 09:10:13;;;;;;;0.63;0.35;;;23.30;63.90;;;;;;4990837;28;20080;-44
2023/05/15 09:12:43;;;;;;;0.73;0.30;;;23.80;57.50;;;;;;4997312;28;20026;-47
2023/05/15 09:15:16;;;;;;;0.22;0.22;;;24.30;56.20;;;;;;4993996;28;20038;-54
2023/05/15 09:17:43;;;;;;;1.55;0.28;;;24.30;54.40;;;;;;4990543;28;20035;-48
2023/05/15 09:20:28;;;;;;;1.85;0.40;;;23.70;54.80;;;;;;4990834;28;20035;-46
2023/05/15 09:22:55;;;;;;;2.15;0.30;;;23.10;54.90;;;;;;4990778;28;20041;-52
2023/05/15 09:25:40;;;;;;;0.77;0.50;;;22.40;57.40;;;;;;4990761;28;20019;-42
2023/05/15 09:28:23;;;;;;;0.80;0.20;;;22.00;57.30;;;;;;5004744;28;20506;-50
2023/05/15 09:30:48;;;;;;;0.30;0.20;;;21.50;61.90;;;;;;4988865;28;20053;-48
2023/05/15 09:33:15;;;;;;;2.03;0.30;;;21.60;62.70;;;;;;4989119;28;20027;-47
2023/05/15 09:35:41;;;;;;;0.80;0.30;;;21.70;61.20;;;;;;4989078;28;20048;-45
2023/05/15 09:38:11;;;;;;;1.08;0.30;;;21.60;59.60;;;;;;4989085;28;20385;-43
2023/05/15 09:40:38;;;;;;;0.40;0.20;;;21.80;58.40;;;;;;4988798;28;20058;-50
2023/05/15 09:43:04;;;;;;;2.30;0.30;;;21.80;61.60;;;;;;4989663;28;20033;-45
2023/05/15 09:45:30;;;;;;;3.03;0.38;;;22.40;56.40;;;;;;4990505;28;20026;-47
2023/05/15 09:47:58;;;;;;;1.33;0.32;;;22.50;57.50;;;;;;4994069;28;20034;-48
2023/05/15 09:50:37;;;;;;;1.13;0.60;;;22.70;58.80;;;;;;4994269;28;20052;-46
2023/05/15 09:53:03;;;;;;;;;;;23.00;54.70;;;;;;4994577;28;20129;-52
2023/05/15 09:55:35;;;;;;;0.32;0.20;;;22.80;52.00;;;;;;4994045;28;19952;-55
2023/05/15 09:58:07;;;;;;;2.88;0.30;;;22.90;55.50;;;;;;4993849;28;20065;-48
2023/05/15 10:00:33;;;;;;;0.93;0.35;;;22.70;53.10;;;;;;4994043;28;20030;-51
2023/05/15 10:03:03;;;;;;;0.73;0.43;;;23.00;52.50;;;;;;4993828;28;20046;-52
2023/05/15 10:05:30;;;;;;;0.70;0.15;;;23.10;53.40;;;;;;4994145;28;20741;-44
2023/05/15 10:07:56;;;;;;;0.50;0.25;;;23.70;60.60;;;;;;4993668;28;20113;-45
2023/05/15 10:10:23;;;;;;;0.17;0.17;;;24.20;56.40;;;;;;4993782;28;20038;-52
2023/05/15 10:12:50;;;;;;;0.45;0.28;;;24.50;54.20;;;;;;4993588;28;20022;-47
2023/05/15 10:15:20;;;;;;;0.63;0.28;;;24.70;54.80;;;;;;4993516;28;20430;-44
2023/05/15 10:17:48;;;;;;;0.20;0.20;;;24.00;48.70;;;;;;4999055;28;20042;-53
2023/05/15 10:20:16;;;;;;;0.70;0.30;;;24.20;52.80;;;;;;4993418;28;20458;-47
2023/05/15 10:22:47;;;;;;;0.60;0.30;;;23.80;49.10;;;;;;4993493;28;20026;-47
2023/05/15 10:25:32;;;;;;;0.20;0.20;;;24.00;59.60;;;;;;4993702;28;20026;-46
2023/05/15 10:27:59;;;;;;;0.90;0.30;;;23.60;48.90;;;;;;4993806;28;20089;-51
2023/05/15 10:30:25;;;;;;;1.75;0.30;;;22.70;50.50;;;;;;4993254;28;20034;-43
2023/05/15 10:32:51;;;;;;;1.15;0.20;;;22.70;56.60;;;;;;4999989;28;20485;-47
2023/05/15 10:35:17;;;;;;;1.95;0.55;;;22.70;53.60;;;;;;4999071;28;20054;-53
2023/05/15 10:37:46;;;;;;;1.45;0.30;;;23.00;58.40;;;;;;4993162;28;20126;-52
2023/05/15 10:40:13;;;;;;;0.30;0.20;;;22.80;52.60;;;;;;4993235;28;20029;-51
2023/05/15 10:42:42;;;;;;;0.30;0.30;;;23.00;53.70;;;;;;4992653;28;20489;-54
2023/05/15 10:45:08;;;;;;;0.68;0.30;;;23.00;54.40;;;;;;4995151;28;20375;-45
2023/05/15 10:47:35;;;;;;;0.55;0.30;;;23.20;60.90;;;;;;4994566;28;20077;-45
2023/05/15 10:50:01;;;;;;;0.20;0.20;;;23.30;51.50;;;;;;4992878;28;20497;-51
2023/05/15 10:52:26;;;;;;;0.90;0.25;;;23.30;54.90;;;;;;4992524;28;20026;-46
2023/05/15 10:54:53;;;;;;;0.55;0.15;;;23.70;52.90;;;;;;4996659;28;20023;-54
2023/05/15 10:57:22;;;;;;;0.22;0.20;;;23.90;53.80;;;;;;5001246;28;20041;-52
2023/05/15 10:59:47;;;;;;;0.60;0.30;;;23.30;50.50;;;;;;4992150;28;20396;-51
2023/05/15 11:02:28;;;;;;;1.27;0.30;;;23.40;50.40;;;;;;5000271;28;20170;-52
2023/05/15 11:05:01;;;;;;;0.30;0.30;;;23.50;53.60;;;;;;4992758;28;20022;-51
2023/05/15 11:07:27;;;;;;;0.57;0.30;;;23.90;59.80;;;;;;4997310;28;20038;-40
2023/05/15 11:09:57;;;;;;;2.28;0.40;;;23.90;52.50;;;;;;4998248;28;20025;-39
2023/05/15 11:12:23;;;;;;;0.35;0.25;;;23.80;54.60;;;;;;4992316;28;20026;-41
2023/05/15 11:14:54;;;;;;;0.30;0.30;;;24.20;62.30;;;;;;4992793;28;20034;-45
2023/05/15 11:17:22;;;;;;;0.45;0.25;;;24.50;55.30;;;;;;4992441;28;20045;-41
2023/05/15 11:19:48;;;;;;;2.23;1.03;;;24.70;49.40;;;;;;4993314;28;20030;-48
2023/05/15 11:22:14;;;;;;;0.40;0.30;;;24.50;47.70;;;;;;5002472;28;20048;-42
2023/05/15 11:24:54;;;;;;;0.20;0.20;;;24.20;48.70;;;;;;5004469;28;20022;-47
2023/05/15 11:27:25;;;;;;;0.40;0.20;;;24.00;50.10;;;;;;5007120;28;20037;-47
2023/05/15 11:30:11;;;;;;;0.38;0.20;;;24.00;51.50;;;;;;4992032;28;20023;-55
2023/05/15 11:32:40;;;;;;;0.30;0.20;;;24.00;54.00;;;;;;4991688;28;20053;-53
2023/05/15 11:35:33;;;;;;;0.28;0.20;;;23.70;48.20;;;;;;4992146;28;20031;-40
2023/05/15 11:38:23;;;;;;;1.83;0.32;;;23.40;52.30;;;;;;4992206;28;20061;-45
2023/05/15 11:40:55;;;;;;;2.60;0.35;;;23.40;54.70;;;;;;4992518;28;20473;-49
2023/05/15 11:43:23;;;;;;;0.10;0.10;;;23.20;47.20;;;;;;4996648;28;20034;-47
2023/05/15 11:45:52;;;;;;;;;;;22.90;49.50;;;;;;4997676;28;20422;-48
2023/05/15 11:48:18;;;;;;;0.25;0.20;;;22.80;52.00;;;;;;4992023;28;19910;-50
2023/05/15 11:50:44;;;;;;;0.85;0.30;;;23.00;52.80;;;;;;4992019;28;20026;-41
2023/05/15 11:53:11;;;;;;;1.02;0.30;;;23.30;48.50;;;;;;4991706;28;20096;-48
2023/05/15 11:55:39;;;;;;;0.60;0.35;;;23.30;48.40;;;;;;5001299;28;20057;-45
2023/05/15 11:58:10;;;;;;;0.53;0.30;;;23.40;50.30;;;;;;4994413;28;20031;-47
2023/05/15 12:00:36;;;;;;;1.05;0.43;;;22.80;48.60;;;;;;4991458;28;20077;-43
2023/05/15 12:03:02;;;;;;;0.65;0.20;;;23.00;49.90;;;;;;4994813;28;20034;-50
2023/05/15 12:05:29;;;;;;;0.30;0.30;;;23.10;47.30;;;;;;4991776;28;20031;-41
2023/05/15 12:07:56;;;;;;;0.10;0.10;;;22.80;47.20;;;;;;4993541;28;20433;-42
2023/05/15 12:10:22;;;;;;;1.92;0.40;;;22.80;49.00;;;;;;4990394;28;20105;-44
2023/05/15 12:12:48;;;;;;;1.52;0.50;;;22.70;51.30;;;;;;4996473;28;20101;-50
2023/05/15 12:15:15;;;;;;;0.82;0.30;;;22.70;48.60;;;;;;4992964;28;20077;-44
2023/05/15 12:17:43;;;;;;;2.05;0.30;;;22.20;48.60;;;;;;4991593;28;20069;-41
2023/05/15 12:20:15;;;;;;;0.90;0.35;;;22.30;51.70;;;;;;4991478;28;20026;-41
2023/05/15 12:22:41;;;;;;;1.23;0.38;;;22.50;50.40;;;;;;4991342;28;20101;-51
2023/05/15 12:25:10;;;;;;;1.50;0.40;;;22.30;47.90;;;;;;4991503;28;20033;-51
2023/05/15 12:27:36;;;;;;;1.17;0.43;;;22.00;47.70;;;;;;4991253;28;20109;-45
2023/05/15 12:30:04;;;;;;;2.60;0.55;;;21.20;49.40;;;;;;4991767;28;20022;-43
2023/05/15 12:32:32;;;;;;;0.20;0.20;;;21.40;53.20;;;;;;4991143;28;20113;-45
2023/05/15 12:34:58;;;;;;;4.05;0.52;;;21.20;49.80;;;;;;4991457;28;20026;-50
2023/05/15 12:37:23;;;;;;;0.82;0.28;;;21.20;51.40;;;;;;4991013;28;20042;-40
2023/05/15 12:39:54;;;;;;;3.05;0.60;;;21.30;52.90;;;;;;4994203;28;20019;-59
2023/05/15 12:42:20;;;;;;;0.70;0.30;;;21.40;51.60;;;;;;4994352;28;20443;-43
2023/05/15 12:44:50;;;;;;;0.30;0.30;;;21.70;55.00;;;;;;4991067;28;20018;-48
2023/05/15 12:47:21;;;;;;;0.20;0.20;;;21.80;53.30;;;;;;4989661;28;20503;-43
2023/05/15 12:49:47;;;;;;;1.75;0.43;;;21.60;53.60;;;;;;4990961;28;20470;-49